Time;durP1;ratioP1;P1;durP2;ratioP2;P2;SDS_P1;SDS_P2;PMS_P1;PMS_P2;Temp;Humidity;BMP_temperature;BMP_pressure;BME280_temperature;BME280_humidity;BME280_pressure;Samples;Min_cycle;Max_cycle;Signal;HPM_P1;HPM_P2
2022/05/22 00:02:11;;;;;;;;;;;9.80;99.90;;;;;;5126442;27;19920;-78
2022/05/22 00:04:37;;;;;;;;;;;9.80;99.90;;;;;;5117100;28;19912;-77
2022/05/22 00:07:05;;;;;;;;;;;9.80;99.90;;;;;;5114889;28;20332;-78
2022/05/22 00:09:31;;;;;;;;;;;9.90;99.90;;;;;;5116483;27;19919;-78
2022/05/22 00:11:57;;;;;;;;;;;9.90;99.90;;;;;;5114888;28;19919;-78
2022/05/22 00:14:25;;;;;;;;;;;9.90;99.90;;;;;;5115728;28;19990;-78
2022/05/22 00:16:51;;;;;;;;;;;9.80;99.90;;;;;;5113723;28;19923;-78
2022/05/22 00:19:18;;;;;;;;;;;9.90;99.90;;;;;;5115281;28;19919;-78
2022/05/22 00:21:44;;;;;;;;;;;9.80;99.90;;;;;;5098685;28;19977;-78
2022/05/22 00:24:10;;;;;;;;;;;9.80;99.90;;;;;;5114944;28;19912;-79
2022/05/22 00:26:36;;;;;;;;;;;9.80;99.90;;;;;;5116311;28;19958;-78
2022/05/22 00:29:02;;;;;;;;;;;9.70;99.90;;;;;;5116172;28;19947;-78
2022/05/22 00:31:28;;;;;;;;;;;9.60;99.90;;;;;;5111481;28;20298;-79
2022/05/22 00:33:53;;;;;;;;;;;9.60;99.90;;;;;;5111722;28;19960;-79
2022/05/22 00:36:19;;;;;;;;;;;9.60;99.90;;;;;;5111439;27;19912;-79
2022/05/22 00:38:45;;;;;;;;;;;9.50;99.90;;;;;;5142314;27;19920;-78
2022/05/22 00:41:11;;;;;;;;;;;9.50;99.90;;;;;;5106040;28;19923;-78
2022/05/22 00:43:38;;;;;;;;;;;9.50;99.90;;;;;;5107965;28;19937;-78
2022/05/22 00:46:05;;;;;;;;;;;9.50;99.90;;;;;;5114425;28;19912;-78
2022/05/22 00:48:32;;;;;;;;;;;9.50;99.90;;;;;;5103533;28;20014;-76
2022/05/22 00:50:59;;;;;;;;;;;9.60;99.90;;;;;;5110534;28;19908;-77
2022/05/22 00:53:26;;;;;;;;;;;9.50;99.90;;;;;;5109568;28;19919;-79
2022/05/22 00:55:52;;;;;;;;;;;9.40;99.90;;;;;;5115850;28;19911;-78
2022/05/22 00:58:19;;;;;;;;;;;9.30;99.90;;;;;;5116120;28;20298;-77
2022/05/22 01:00:45;;;;;;;;;;;9.20;99.90;;;;;;5116380;28;20018;-80
2022/05/22 01:03:29;;;;;;;;;;;9.20;99.90;;;;;;5108782;28;20012;-79
2022/05/22 01:06:01;;;;;;;;;;;9.10;99.90;;;;;;5109715;28;19912;-79
2022/05/22 01:08:27;;;;;;;;;;;9.10;99.90;;;;;;5115527;28;20348;-78
2022/05/22 01:10:59;;;;;;;;;;;9.10;99.90;;;;;;5115271;28;19912;-78
2022/05/22 01:13:27;;;;;;;;;;;9.20;99.90;;;;;;5110267;28;19911;-78
2022/05/22 01:15:53;;;;;;;;;;;9.20;99.90;;;;;;5115491;27;19911;-78
2022/05/22 01:18:19;;;;;;;;;;;9.20;99.90;;;;;;5115748;28;19918;-79
2022/05/22 01:20:45;;;;;;;;;;;9.10;99.90;;;;;;5102819;28;20329;-78
2022/05/22 01:23:11;;;;;;;;;;;9.10;99.90;;;;;;5107906;28;19919;-78
2022/05/22 01:25:37;;;;;;;;;;;9.10;99.90;;;;;;5113099;28;19965;-78
2022/05/22 01:28:02;;;;;;;;;;;9.10;99.90;;;;;;5115066;28;20363;-78
2022/05/22 01:30:28;;;;;;;;;;;9.10;99.90;;;;;;5114208;28;20217;-78
2022/05/22 01:32:54;;;;;;;;;;;9.10;99.90;;;;;;5113951;28;19912;-78
2022/05/22 01:35:22;;;;;;;;;;;9.00;99.90;;;;;;5104353;28;20352;-78
2022/05/22 01:37:48;;;;;;;;;;;9.00;99.90;;;;;;5104639;28;19931;-78
2022/05/22 01:40:15;;;;;;;;;;;8.90;99.90;;;;;;5112562;28;19924;-78
2022/05/22 01:42:41;;;;;;;;;;;8.80;99.90;;;;;;5111335;28;19915;-79
2022/05/22 01:45:08;;;;;;;;;;;8.90;99.90;;;;;;5112283;28;20318;-79
2022/05/22 01:47:34;;;;;;;;;;;8.90;99.90;;;;;;5115162;28;19915;-78
2022/05/22 01:50:00;;;;;;;;;;;8.70;99.90;;;;;;5113995;28;20006;-78
2022/05/22 01:52:25;;;;;;;;;;;8.70;99.90;;;;;;5101239;28;20069;-78
2022/05/22 01:54:51;;;;;;;;;;;8.90;99.90;;;;;;5112667;28;20423;-79
2022/05/22 01:57:16;;;;;;;;;;;9.10;99.90;;;;;;5112586;28;19915;-77
2022/05/22 01:59:42;;;;;;;;;;;9.30;99.90;;;;;;5118096;27;19920;-78
2022/05/22 02:02:08;;;;;;;;;;;9.40;99.90;;;;;;5114607;28;19962;-78
2022/05/22 02:04:34;;;;;;;;;;;9.40;99.90;;;;;;5107093;28;19912;-78
2022/05/22 02:09:44;;;;;;;;;;;9.30;99.90;;;;;;5118446;28;19922;-79
2022/05/22 02:12:09;;;;;;;;;;;9.30;99.90;;;;;;5111271;28;19999;-79
2022/05/22 02:14:35;;;;;;;;;;;9.10;99.90;;;;;;5115936;28;19918;-80
2022/05/22 02:17:01;;;;;;;;;;;9.10;99.90;;;;;;5117012;28;19965;-80
2022/05/22 02:19:26;;;;;;;;;;;9.10;99.90;;;;;;5115018;28;19927;-80
2022/05/22 02:21:52;;;;;;;;;;;9.10;99.90;;;;;;5118665;28;19919;-79
2022/05/22 02:24:17;;;;;;;;;;;9.10;99.90;;;;;;5116544;28;20302;-78
2022/05/22 02:26:43;;;;;;;;;;;9.00;99.90;;;;;;5105648;27;19964;-79
2022/05/22 02:29:09;;;;;;;;;;;9.00;99.90;;;;;;5086365;28;19951;-79
2022/05/22 02:31:35;;;;;;;;;;;8.90;99.90;;;;;;5152750;27;20483;-79
2022/05/22 02:34:00;;;;;;;;;;;8.80;99.90;;;;;;5108210;28;19947;-79
2022/05/22 02:36:27;;;;;;;;;;;8.60;99.90;;;;;;5118669;27;19922;-78
2022/05/22 02:38:53;;;;;;;;;;;8.60;99.90;;;;;;5146454;27;20241;-79
2022/05/22 02:41:20;;;;;;;;;;;8.50;99.90;;;;;;5119100;28;19960;-79
2022/05/22 02:43:46;;;;;;;;;;;8.50;99.90;;;;;;5118104;28;19964;-79
2022/05/22 02:46:14;;;;;;;;;;;8.70;99.90;;;;;;5117238;28;20660;-78
2022/05/22 02:48:39;;;;;;;;;;;8.70;99.90;;;;;;5112647;27;20294;-79
2022/05/22 02:51:05;;;;;;;;;;;8.70;99.90;;;;;;5144450;27;19919;-79
2022/05/22 02:53:31;;;;;;;;;;;8.80;99.90;;;;;;5105745;27;19923;-79
2022/05/22 02:56:05;;;;;;;;;;;8.90;99.90;;;;;;5106610;28;19911;-78
2022/05/22 02:58:31;;;;;;;;;;;9.00;99.90;;;;;;5117935;28;19916;-79
2022/05/22 03:00:56;;;;;;;;;;;9.00;99.90;;;;;;5117896;27;19942;-78
2022/05/22 03:03:22;;;;;;;;;;;9.00;99.90;;;;;;5118228;27;19911;-79
2022/05/22 03:08:32;;;;;;;;;;;8.80;99.90;;;;;;5107783;28;19919;-79
2022/05/22 03:11:02;;;;;;;;;;;8.70;99.90;;;;;;5117032;27;19946;-77
2022/05/22 03:13:27;;;;;;;;;;;8.80;99.90;;;;;;5116341;28;19912;-79
2022/05/22 03:15:53;;;;;;;;;;;8.80;99.90;;;;;;5105661;27;20341;-78
2022/05/22 03:18:20;;;;;;;;;;;8.80;99.90;;;;;;5106595;28;19912;-78
2022/05/22 03:20:46;;;;;;;;;;;8.80;99.90;;;;;;5097619;28;19984;-78
2022/05/22 03:23:12;;;;;;;;;;;8.90;99.90;;;;;;5135420;27;20303;-78
2022/05/22 03:25:38;;;;;;;;;;;8.90;99.90;;;;;;5104471;28;19919;-79
2022/05/22 03:28:04;;;;;;;;;;;8.80;99.90;;;;;;5116878;28;19919;-79
2022/05/22 03:30:30;;;;;;;;;;;8.80;99.90;;;;;;5118363;28;19914;-79
2022/05/22 03:32:56;;;;;;;;;;;8.80;99.90;;;;;;5117142;28;19912;-79
2022/05/22 03:35:21;;;;;;;;;;;8.80;99.90;;;;;;5113745;28;19912;-79
2022/05/22 03:37:47;;;;;;;;;;;9.00;99.90;;;;;;5104270;27;20297;-79
2022/05/22 03:40:13;;;;;;;;;;;9.00;99.90;;;;;;5096643;28;19916;-79
2022/05/22 03:42:39;;;;;;;;;;;9.00;99.90;;;;;;5097715;27;19915;-79
2022/05/22 03:45:05;;;;;;;;;;;8.90;99.90;;;;;;5118166;28;19914;-79
2022/05/22 03:47:30;;;;;;;;;;;8.80;99.90;;;;;;5095128;28;19928;-80
2022/05/22 03:49:56;;;;;;;;;;;8.60;99.90;;;;;;5096157;28;19916;-79
2022/05/22 03:52:22;;;;;;;;;;;8.70;99.90;;;;;;5096466;28;19909;-79
2022/05/22 03:54:47;;;;;;;;;;;8.60;99.90;;;;;;5104841;28;19915;-78
2022/05/22 03:57:13;;;;;;;;;;;8.50;99.90;;;;;;5109830;28;19912;-79
2022/05/22 03:59:39;;;;;;;;;;;8.50;99.90;;;;;;5107530;28;19920;-79
2022/05/22 04:02:05;;;;;;;;;;;8.60;99.90;;;;;;5112789;28;19961;-78
2022/05/22 04:04:30;;;;;;;;;;;8.50;99.90;;;;;;5111640;28;19958;-78
2022/05/22 04:06:56;;;;;;;;;;;8.50;99.90;;;;;;5104666;28;19923;-78
2022/05/22 04:09:22;;;;;;;;;;;8.50;99.90;;;;;;5109357;27;19911;-78
2022/05/22 04:11:47;;;;;;;;;;;8.70;99.90;;;;;;5096067;28;19974;-77
2022/05/22 04:14:13;;;;;;;;;;;8.70;99.90;;;;;;5111686;28;19920;-77
2022/05/22 04:16:39;;;;;;;;;;;8.80;99.90;;;;;;5110749;27;20214;-77
2022/05/22 04:19:04;;;;;;;;;;;8.90;99.90;;;;;;5112337;28;19915;-77
2022/05/22 04:21:30;;;;;;;;;;;8.90;99.90;;;;;;5111856;28;19919;-76
2022/05/22 04:26:40;;;;;;;;;;;9.00;99.90;;;;;;5111988;28;20252;-76
2022/05/22 04:29:06;;;;;;;;;;;9.10;99.90;;;;;;5110825;28;19919;-75
2022/05/22 04:31:31;;;;;;;;;;;9.20;99.90;;;;;;5107538;27;19981;-76
2022/05/22 04:33:57;;;;;;;;;;;9.30;99.90;;;;;;5113322;27;19912;-77
2022/05/22 04:36:23;;;;;;;;;;;9.40;99.90;;;;;;5113534;28;19915;-78
2022/05/22 04:38:49;;;;;;;;;;;9.50;99.90;;;;;;5111610;28;19994;-78
2022/05/22 04:41:17;;;;;;;;;;;9.50;99.90;;;;;;5110605;28;19912;-78
2022/05/22 04:43:43;;;;;;;;;;;9.50;99.90;;;;;;5114149;28;19916;-78
2022/05/22 04:46:09;;;;;;;;;;;9.50;99.90;;;;;;5113968;28;20011;-78
2022/05/22 04:48:35;;;;;;;;;;;9.60;99.90;;;;;;5109336;28;19912;-77
2022/05/22 04:51:01;;;;;;;;;;;9.70;99.90;;;;;;5111883;28;19916;-77
2022/05/22 04:53:28;;;;;;;;;;;9.80;99.90;;;;;;5114057;28;20231;-77
2022/05/22 04:55:54;;;;;;;;;;;9.80;99.90;;;;;;5111817;28;19916;-77
2022/05/22 04:58:20;;;;;;;;;;;9.90;99.90;;;;;;5112933;27;19956;-77
2022/05/22 05:00:46;;;;;;;;;;;10.00;99.90;;;;;;5113150;28;19930;-77
2022/05/22 05:03:12;;;;;;;;;;;10.00;99.90;;;;;;5112928;28;20242;-77
2022/05/22 05:05:38;;;;;;;;;;;10.10;99.90;;;;;;5114961;28;19943;-78
2022/05/22 05:08:04;;;;;;;;;;;10.10;99.90;;;;;;5142471;27;19959;-79
2022/05/22 05:10:30;;;;;;;;;;;10.20;99.90;;;;;;5107453;28;20283;-79
2022/05/22 05:12:56;;;;;;;;;;;10.20;99.90;;;;;;5107041;28;20289;-80
2022/05/22 05:15:23;;;;;;;;;;;10.30;99.90;;;;;;5114228;28;19920;-79
2022/05/22 05:17:49;;;;;;;;;;;10.30;99.90;;;;;;5102770;28;20369;-77
2022/05/22 05:20:16;;;;;;;;;;;10.40;99.90;;;;;;5114603;28;20007;-78
2022/05/22 05:22:42;;;;;;;;;;;10.50;99.90;;;;;;5112220;28;19926;-79
2022/05/22 05:25:08;;;;;;;;;;;10.60;99.90;;;;;;5114241;28;19912;-80
2022/05/22 05:27:34;;;;;;;;;;;10.70;99.90;;;;;;5106664;28;20027;-79
2022/05/22 05:29:59;;;;;;;;;;;10.70;99.90;;;;;;5112345;28;20321;-79
2022/05/22 05:32:25;;;;;;;;;;;10.90;99.90;;;;;;5138756;27;19912;-80
2022/05/22 05:34:58;;;;;;;;;;;10.90;99.90;;;;;;5114417;28;19916;-81
2022/05/22 05:37:23;;;;;;;;;;;11.00;99.90;;;;;;5106361;28;19919;-81
2022/05/22 05:39:49;;;;;;;;;;;11.10;99.90;;;;;;5110627;28;19920;-79
2022/05/22 05:42:15;;;;;;;;;;;11.20;99.90;;;;;;5108919;28;19915;-80
2022/05/22 05:44:41;;;;;;;;;;;11.30;99.90;;;;;;5113415;28;19911;-80
2022/05/22 05:47:08;;;;;;;;;;;11.30;99.90;;;;;;5107122;28;20302;-79
2022/05/22 05:49:33;;;;;;;;;;;11.40;99.90;;;;;;5106821;28;20259;-79
2022/05/22 05:52:01;;;;;;;;;;;11.50;99.90;;;;;;5106612;28;19990;-80
2022/05/22 05:54:27;;;;;;;;;;;11.50;99.90;;;;;;5114277;28;19923;-79
2022/05/22 05:56:52;;;;;;;;;;;11.70;99.90;;;;;;5106867;28;19916;-79
2022/05/22 05:59:18;;;;;;;;;;;11.70;99.90;;;;;;5112516;28;19916;-80
2022/05/22 06:01:43;;;;;;;;;;;11.80;99.90;;;;;;5107001;28;19969;-81
2022/05/22 06:04:09;;;;;;;;;;;11.90;99.90;;;;;;5090065;28;19928;-80
2022/05/22 06:06:35;;;;;;;;;;;12.00;99.90;;;;;;5102700;28;19916;-81
2022/05/22 06:09:00;;;;;;;;;;;12.00;99.90;;;;;;5112340;28;19935;-81
2022/05/22 06:11:26;;;;;;;;;;;12.10;99.90;;;;;;5108937;28;19923;-81
2022/05/22 06:13:52;;;;;;;;;;;12.30;99.90;;;;;;5110328;28;19934;-81
2022/05/22 06:16:18;;;;;;;;;;;12.30;99.90;;;;;;5136761;27;19915;-81
2022/05/22 06:18:44;;;;;;;;;;;12.40;99.90;;;;;;5108630;28;19934;-82
2022/05/22 06:21:17;;;;;;;;;;;12.50;99.90;;;;;;5106655;28;20203;-83
2022/05/22 06:23:43;;;;;;;;;;;12.60;99.90;;;;;;5112679;28;19912;-83
2022/05/22 06:26:10;;;;;;;;;;;12.70;99.90;;;;;;5107097;28;19919;-82
2022/05/22 06:28:36;;;;;;;;;;;12.70;99.90;;;;;;5110805;28;19922;-82
2022/05/22 06:31:04;;;;;;;;;;;12.80;99.90;;;;;;5108962;28;19912;-82
2022/05/22 06:33:30;;;;;;;;;;;12.90;99.90;;;;;;5107548;28;19959;-79
2022/05/22 06:35:56;;;;;;;;;;;13.00;99.90;;;;;;5112171;28;19924;-79
2022/05/22 06:41:07;;;;;;;;;;;13.20;99.90;;;;;;5112024;28;19976;-80
2022/05/22 06:43:32;;;;;;;;;;;13.30;99.90;;;;;;5112630;28;20023;-80
2022/05/22 06:45:58;;;;;;;;;;;13.40;99.90;;;;;;5110352;28;19998;-82
2022/05/22 06:48:24;;;;;;;;;;;13.50;99.90;;;;;;5116806;28;19912;-79
2022/05/22 06:50:49;;;;;;;;;;;13.60;99.90;;;;;;5116438;28;19911;-80
2022/05/22 06:53:15;;;;;;;;;;;13.80;99.90;;;;;;5116672;28;19915;-80
2022/05/22 06:55:41;;;;;;;;;;;13.90;99.90;;;;;;5115126;28;19916;-79
2022/05/22 06:58:07;;;;;;;;;;;14.00;99.90;;;;;;5109282;28;20007;-79
2022/05/22 07:00:32;;;;;;;;;;;14.10;99.90;;;;;;5117107;27;19916;-79
2022/05/22 07:02:58;;;;;;;;;;;14.10;99.90;;;;;;5116795;28;19912;-79
2022/05/22 07:05:24;;;;;;;;;;;14.20;99.90;;;;;;5108005;28;19916;-80
2022/05/22 07:07:50;;;;;;;;;;;14.30;99.90;;;;;;5111065;28;19990;-81
2022/05/22 07:10:15;;;;;;;;;;;14.40;99.90;;;;;;5117049;28;20006;-78
2022/05/22 07:12:41;;;;;;;;;;;14.60;99.90;;;;;;5108833;28;19927;-79
2022/05/22 07:15:07;;;;;;;;;;;14.70;99.90;;;;;;5116724;28;19919;-80
2022/05/22 07:17:33;;;;;;;;;;;14.80;99.90;;;;;;5108637;28;19912;-81
2022/05/22 07:19:59;;;;;;;;;;;15.00;99.90;;;;;;5117327;28;20018;-82
2022/05/22 07:22:25;;;;;;;;;;;15.10;99.90;;;;;;5118341;27;19943;-79
2022/05/22 07:24:51;;;;;;;;;;;15.30;99.90;;;;;;5109513;28;19917;-79
2022/05/22 07:27:17;;;;;;;;;;;15.50;99.90;;;;;;5100283;28;19916;-80
2022/05/22 07:29:43;;;;;;;;;;;15.60;99.90;;;;;;5110636;28;20333;-80
2022/05/22 07:32:08;;;;;;;;;;;15.70;99.90;;;;;;5111894;28;19919;-80
2022/05/22 07:34:35;;;;;;;;;;;16.00;99.90;;;;;;5109639;28;19912;-80
2022/05/22 07:37:02;;;;;;;;;;;16.20;99.90;;;;;;5105022;28;20035;-80
2022/05/22 07:39:28;;;;;;;;;;;16.60;99.90;;;;;;5114284;28;19931;-79
2022/05/22 07:41:54;;;;;;;;;;;17.00;99.90;;;;;;5116863;28;19908;-80
2022/05/22 07:44:20;;;;;;;;;;;17.40;99.90;;;;;;5107793;28;20280;-79
2022/05/22 07:46:47;;;;;;;;;;;17.80;99.90;;;;;;5097842;28;19938;-79
2022/05/22 07:51:56;;;;;;;;;;;18.00;99.90;;;;;;5117059;28;20429;-78
2022/05/22 07:54:22;;;;;;;;;;;18.40;99.90;;;;;;5115249;28;19912;-79
2022/05/22 07:56:48;;;;;;;;;;;18.90;99.90;;;;;;5142593;27;20322;-79
2022/05/22 07:59:13;;;;;;;;;;;19.30;99.90;;;;;;5115760;28;20254;-80
2022/05/22 08:01:39;;;;;;;;;;;19.50;99.90;;;;;;5141850;27;19914;-80
2022/05/22 08:04:05;;;;;;;;;;;19.70;99.90;;;;;;5115657;27;19956;-81
2022/05/22 08:06:30;;;;;;;;;;;19.90;99.90;;;;;;5114437;28;19915;-80
2022/05/22 08:08:56;;;;;;;;;;;19.90;99.90;;;;;;5143568;27;20240;-79
2022/05/22 08:11:21;;;;;;;;;;;20.00;99.90;;;;;;5111378;28;19960;-80
2022/05/22 08:13:47;;;;;;;;;;;20.40;99.90;;;;;;5112660;28;19908;-81
2022/05/22 08:16:13;;;;;;;;;;;20.70;99.90;;;;;;5109610;28;19911;-81
2022/05/22 08:18:38;;;;;;;;;;;20.70;99.90;;;;;;5098478;28;19911;-79
2022/05/22 08:21:06;;;;;;;;;;;20.50;99.90;;;;;;5104199;28;20222;-79
2022/05/22 08:23:32;;;;;;;;;;;20.70;99.90;;;;;;5098277;28;19916;-80
2022/05/22 08:25:57;;;;;;;;;;;20.90;99.90;;;;;;5113670;27;20222;-79
2022/05/22 08:28:23;;;;;;;;;;;21.40;99.90;;;;;;5102616;28;19916;-79
2022/05/22 08:30:48;;;;;;;;;;;21.40;99.90;;;;;;5099272;28;20004;-79
2022/05/22 08:33:14;;;;;;;;;;;21.40;99.90;;;;;;5111829;28;19916;-78
2022/05/22 08:35:41;;;;;;;;;;;21.50;99.90;;;;;;5137778;27;19912;-78
2022/05/22 08:38:07;;;;;;;;;;;22.00;99.90;;;;;;5108591;28;20011;-81
2022/05/22 08:41:05;;;;;;;;;;;22.10;99.90;;;;;;5112587;28;20007;-79
2022/05/22 08:43:39;;;;;;;;;;;22.50;99.90;;;;;;5031555;28;19917;-78
2022/05/22 08:46:07;;;;;;;;;;;22.60;99.90;;;;;;5047114;28;20006;-81
2022/05/22 08:48:37;;;;;;;;;;;23.00;98.70;;;;;;5033190;28;19915;-79
2022/05/22 08:51:05;;;;;;;;;;;23.10;99.60;;;;;;5032847;28;20004;-79
2022/05/22 08:53:34;;;;;;;;;;;22.70;97.80;;;;;;5032510;28;19913;-79
2022/05/22 08:58:56;;;;;;;;;;;23.00;95.90;;;;;;5034078;28;19971;-79
2022/05/22 09:01:40;;;;;;;;;;;22.20;96.20;;;;;;5033631;28;19924;-79
2022/05/22 09:04:08;;;;;;;;;;;22.40;97.00;;;;;;5004208;28;19967;-78
2022/05/22 09:06:50;;;;;;;;;;;22.30;98.30;;;;;;5019937;28;20344;-79
2022/05/22 09:09:16;;;;;;;;;;;22.50;96.40;;;;;;5048766;28;19916;-80
2022/05/22 09:11:47;;;;;;;;;;;22.80;95.40;;;;;;5033420;28;19971;-79
2022/05/22 09:14:42;;;;;;;;;;;22.90;95.20;;;;;;5032920;28;20000;-78
2022/05/22 09:17:11;;;;;;;;;;;23.00;93.90;;;;;;4991980;28;19915;-80
2022/05/22 09:19:59;;;;;;;;;;;23.00;96.80;;;;;;5054512;28;20334;-80
2022/05/22 09:22:42;;;;;;;;;;;22.90;96.60;;;;;;5090365;28;19988;-79
2022/05/22 09:25:10;;;;;;;;;;;23.20;96.00;;;;;;5066976;28;20015;-80
2022/05/22 09:27:54;;;;;;;;;;;23.20;95.60;;;;;;5074459;28;19955;-79
2022/05/22 09:30:22;;;;;;;;;;;23.20;96.60;;;;;;5073672;28;19908;-77
2022/05/22 09:32:53;;;;;;;;;;;23.70;95.20;;;;;;5090589;28;20303;-78
2022/05/22 09:35:33;;;;;;;;;;;23.80;94.30;;;;;;5088461;28;19912;-78
2022/05/22 09:38:10;;;;;;;;;;;24.00;94.70;;;;;;5073638;28;19975;-76
2022/05/22 09:40:43;;;;;;;;;;;24.20;93.60;;;;;;5074107;28;19920;-79
2022/05/22 09:43:08;;;;;;;;;;;23.90;93.90;;;;;;5073623;28;19908;-80
2022/05/22 09:45:52;;;;;;;;;;;23.30;93.80;;;;;;5077937;28;19919;-80
2022/05/22 09:48:36;;;;;;;;;;;23.50;95.30;;;;;;5056952;28;20207;-80
2022/05/22 09:51:10;;;;;;;;;;;23.70;97.60;;;;;;5093568;28;20376;-79
2022/05/22 09:53:39;;;;;;;;;;;23.80;95.90;;;;;;5105712;28;19916;-80
2022/05/22 09:56:17;;;;;;;;;;;24.20;94.40;;;;;;5111558;28;19982;-79
2022/05/22 09:59:01;;;;;;;;;;;24.80;93.60;;;;;;5129621;28;19913;-80
2022/05/22 10:01:29;;;;;;;;;;;24.70;93.50;;;;;;5114047;28;19916;-80
2022/05/22 10:04:14;;;;;;;;;;;24.20;94.00;;;;;;5098502;28;19919;-78
2022/05/22 10:06:39;;;;;;;;;;;23.90;92.40;;;;;;5097246;28;19919;-80
2022/05/22 10:09:05;;;;;;;;;;;23.00;95.40;;;;;;5114520;28;19920;-80
2022/05/22 10:11:40;;;;;;;;;;;22.60;95.30;;;;;;5114560;28;20264;-78
2022/05/22 10:14:05;;;;;;;;;;;22.40;95.80;;;;;;5107156;28;19915;-78
2022/05/22 10:16:50;;;;;;;;;;;22.60;95.10;;;;;;5110216;28;19920;-79
2022/05/22 10:19:24;;;;;;;;;;;22.80;95.90;;;;;;5110819;28;19963;-79
2022/05/22 10:21:59;;;;;;;;;;;23.00;95.10;;;;;;5112872;28;19916;-79
2022/05/22 10:24:43;;;;;;;;;;;23.10;95.40;;;;;;5115928;28;19911;-79
2022/05/22 10:27:18;;;;;;;;;;;23.20;94.10;;;;;;5111068;27;20321;-78
2022/05/22 10:29:50;;;;;;;;;;;23.60;93.60;;;;;;5104880;28;19968;-78
2022/05/22 10:32:19;;;;;;;;;;;23.90;95.50;;;;;;5098385;28;20307;-77
2022/05/22 10:34:57;;;;;;;;;;;24.10;93.70;;;;;;5100257;28;19916;-79
2022/05/22 10:37:34;;;;;;;;;;;24.30;92.70;;;;;;5105070;28;19916;-78
2022/05/22 10:40:02;;;;;;;;;;;24.30;92.90;;;;;;5104825;27;19924;-78
2022/05/22 10:42:46;;;;;;;;;;;24.50;91.70;;;;;;5105494;28;19930;-80
2022/05/22 10:45:33;;;;;;;;;;;24.50;93.50;;;;;;5109586;28;19924;-79
2022/05/22 10:48:07;;;;;;;;;;;23.90;94.70;;;;;;5108692;27;19957;-79
2022/05/22 10:50:33;;;;;;;;;;;23.60;94.20;;;;;;5110284;28;20353;-78
2022/05/22 10:52:59;;;;;;;;;;;23.30;96.90;;;;;;5114098;28;19947;-79
2022/05/22 10:55:25;;;;;;;;;;;23.20;94.80;;;;;;5113535;28;19955;-78
2022/05/22 10:57:58;;;;;;;;;;;23.60;96.00;;;;;;5093534;28;19912;-78
2022/05/22 11:00:24;;;;;;;;;;;24.10;93.10;;;;;;5109800;28;20230;-79
2022/05/22 11:02:50;;;;;;;;;;;24.40;94.40;;;;;;5112060;28;19916;-79
2022/05/22 11:05:18;;;;;;;;;;;24.80;93.90;;;;;;5113193;28;19915;-79
2022/05/22 11:07:45;;;;;;;;;;;25.00;94.80;;;;;;5110537;28;20047;-78
2022/05/22 11:10:17;;;;;;;;;;;25.20;94.80;;;;;;5103084;28;19923;-78
2022/05/22 11:12:43;;;;;;;;;;;25.80;92.30;;;;;;5114274;27;20017;-79
2022/05/22 11:15:14;;;;;;;;;;;26.10;91.90;;;;;;5113214;28;19963;-79
2022/05/22 11:17:40;;;;;;;;;;;26.40;90.90;;;;;;5114883;28;19916;-79
2022/05/22 11:20:13;;;;;;;;;;;26.30;91.40;;;;;;5098028;28;20313;-79
2022/05/22 11:22:58;;;;;;;;;;;25.80;91.20;;;;;;5107182;28;20129;-78
2022/05/22 11:25:31;;;;;;;;;;;25.70;91.80;;;;;;5093210;28;19981;-80
2022/05/22 11:28:36;;;;;;;;;;;25.90;93.70;;;;;;5100655;28;20306;-79
2022/05/22 11:31:05;;;;;;;;;;;25.90;91.90;;;;;;5013265;28;20387;-79
2022/05/22 11:33:48;;;;;;;;;;;26.40;92.30;;;;;;5029344;28;19917;-77
2022/05/22 11:36:23;;;;;;;;;;;26.10;89.00;;;;;;5029013;28;19921;-79
2022/05/22 11:38:55;;;;;;;;;;;25.10;89.10;;;;;;5011323;28;20003;-79
2022/05/22 11:41:20;;;;;;;;;;;25.10;94.10;;;;;;5011590;28;19921;-79
2022/05/22 11:43:59;;;;;;;;;;;25.00;93.30;;;;;;5015437;28;19924;-77
2022/05/22 11:46:33;;;;;;;;;;;24.80;95.30;;;;;;5030717;28;19924;-78
2022/05/22 11:49:05;;;;;;;;;;;24.90;93.40;;;;;;5028894;28;19923;-79
2022/05/22 11:51:39;;;;;;;;;;;24.70;91.30;;;;;;5028890;28;19917;-79
2022/05/22 11:54:08;;;;;;;;;;;25.00;95.00;;;;;;5013429;28;19924;-81
2022/05/22 11:56:34;;;;;;;;;;;25.10;94.60;;;;;;5030718;28;19913;-80
2022/05/22 11:58:59;;;;;;;;;;;25.30;95.40;;;;;;5028854;28;20267;-79
2022/05/22 12:01:28;;;;;;;;;;;25.20;94.60;;;;;;5051286;28;20310;-80
2022/05/22 12:04:05;;;;;;;;;;;25.60;93.00;;;;;;5116887;28;19961;-79
2022/05/22 12:06:42;;;;;;;;;;;25.80;91.90;;;;;;5117276;28;19911;-79
2022/05/22 12:09:07;;;;;;;;;;;25.60;90.00;;;;;;5115812;28;19966;-78
2022/05/22 12:11:33;;;;;;;;;;;25.70;89.30;;;;;;5115155;28;19912;-77
2022/05/22 12:14:21;;;;;;;;;;;24.60;89.70;;;;;;5116226;28;19912;-80
2022/05/22 12:17:07;;;;;;;;;;;24.40;92.50;;;;;;5116428;28;19912;-79
2022/05/22 12:19:33;;;;;;;;;;;24.70;92.00;;;;;;5098417;28;19916;-79
2022/05/22 12:22:13;;;;;;;;;;;25.20;93.10;;;;;;5106694;28;20195;-79
2022/05/22 12:24:39;;;;;;;;;;;25.30;93.90;;;;;;5117035;28;19912;-79
2022/05/22 12:27:08;;;;;;;;;;;25.40;93.80;;;;;;5117143;28;19956;-79
2022/05/22 12:29:41;;;;;;;;;;;25.70;94.40;;;;;;5107106;28;19912;-79
2022/05/22 12:32:15;;;;;;;;;;;26.00;93.50;;;;;;5107013;28;19915;-78
2022/05/22 12:34:43;;;;;;;;;;;26.40;92.90;;;;;;5105211;28;19978;-79
2022/05/22 12:37:12;;;;;;;;;;;26.30;95.00;;;;;;5095574;28;19912;-78
2022/05/22 12:39:43;;;;;;;;;;;26.00;92.70;;;;;;5111333;28;19971;-78
2022/05/22 12:42:17;;;;;;;;;;;26.60;93.00;;;;;;5105613;28;19912;-78
2022/05/22 12:44:43;;;;;;;;;;;26.80;93.30;;;;;;5114919;28;19995;-79
2022/05/22 12:47:13;;;;;;;;;;;26.70;92.80;;;;;;5115679;28;19954;-79
2022/05/22 12:49:39;;;;;;;;;;;27.00;89.10;;;;;;5110324;28;19922;-78
2022/05/22 12:52:09;;;;;;;;;;;27.00;91.60;;;;;;5101515;28;19916;-80
2022/05/22 12:54:35;;;;;;;;;;;26.60;91.90;;;;;;5101504;28;19919;-78
2022/05/22 12:57:10;;;;;;;;;;;26.00;91.70;;;;;;5099519;28;19912;-79
2022/05/22 12:59:36;;;;;;;;;;;25.80;91.30;;;;;;5100584;28;20299;-78
2022/05/22 13:02:02;;;;;;;;;;;25.90;93.10;;;;;;5099974;28;19923;-78
2022/05/22 13:04:30;;;;;;;;;;;26.00;93.90;;;;;;5104178;28;19912;-77
2022/05/22 13:07:18;;;;;;;;;;;26.10;92.10;;;;;;5097381;28;19923;-79
2022/05/22 13:09:54;;;;;;;;;;;26.00;93.40;;;;;;5097063;28;19919;-78
2022/05/22 13:12:27;;;;;;;;;;;26.00;91.80;;;;;;5094678;28;19923;-78
2022/05/22 13:15:01;;;;;;;;;;;25.90;94.10;;;;;;5094860;28;19995;-78
2022/05/22 13:17:39;;;;;;;;;;;26.10;89.20;;;;;;5096299;28;19982;-78
2022/05/22 13:20:06;;;;;;;;;;;25.80;93.30;;;;;;5112724;27;19927;-77
2022/05/22 13:22:33;;;;;;;;;;;25.80;93.40;;;;;;5114480;28;19996;-78
2022/05/22 13:24:59;;;;;;;;;;;26.00;93.80;;;;;;5115848;28;20226;-77
2022/05/22 13:27:28;;;;;;;;;;;26.30;91.70;;;;;;5114371;28;19908;-77
2022/05/22 13:29:57;;;;;;;;;;;26.60;89.40;;;;;;5095664;28;19918;-77
2022/05/22 13:32:35;;;;;;;;;;;26.90;91.70;;;;;;5115329;28;19912;-77
2022/05/22 13:35:10;;;;;;;;;;;27.00;90.10;;;;;;5113399;28;19916;-78
2022/05/22 13:37:36;;;;;;;;;;;26.70;90.50;;;;;;5112486;28;20289;-78
2022/05/22 13:40:04;;;;;;;;;;;26.60;91.20;;;;;;5114010;28;19924;-78
2022/05/22 13:42:30;;;;;;;;;;;26.30;92.30;;;;;;5113466;28;19912;-78
2022/05/22 13:45:04;;;;;;;;;;;26.10;91.80;;;;;;5114581;28;19951;-78
2022/05/22 13:47:36;;;;;;;;;;;25.90;92.40;;;;;;5108400;28;19995;-78
2022/05/22 13:53:14;;;;;;;;;;;26.80;92.20;;;;;;5110533;28;19923;-79
2022/05/22 13:55:41;;;;;;;;;;;26.10;90.20;;;;;;5114744;28;19955;-77
2022/05/22 13:58:26;;;;;;;;;;;25.90;91.20;;;;;;5118107;28;19916;-78
2022/05/22 14:00:54;;;;;;;;;;;25.90;91.80;;;;;;5108375;28;19928;-77
2022/05/22 14:03:36;;;;;;;;;;;26.20;92.40;;;;;;5115332;28;19919;-77
2022/05/22 14:06:04;;;;;;;;;;;26.40;91.10;;;;;;5116161;28;19912;-77
2022/05/22 14:08:34;;;;;;;;;;;26.40;83.20;;;;;;5092246;28;19916;-77
2022/05/22 14:11:02;;;;;;;;;;;26.00;85.10;;;;;;5116836;28;19939;-76
2022/05/22 14:13:27;;;;;;;;;;;25.30;90.10;;;;;;5092664;28;19920;-76
2022/05/22 14:15:57;;;;;;;;;;;24.70;89.10;;;;;;5111200;28;19922;-77
2022/05/22 14:18:25;;;;;;;;;;;24.80;87.50;;;;;;5111128;27;20214;-76
2022/05/22 14:20:52;;;;;;;;;;;24.70;90.50;;;;;;5109786;28;19926;-76
2022/05/22 14:23:20;;;;;;;;;;;24.50;90.40;;;;;;5108957;28;19912;-76
2022/05/22 14:25:46;;;;;;;;;;;24.50;91.10;;;;;;5108504;28;19919;-76
2022/05/22 14:28:12;;;;;;;;;;;24.90;90.50;;;;;;5112527;28;19915;-77
2022/05/22 14:30:40;;;;;;;;;;;25.20;86.70;;;;;;5109272;28;19923;-75
2022/05/22 14:33:08;;;;;;;;;;;25.30;87.50;;;;;;5112419;28;20214;-75
2022/05/22 14:35:42;;;;;;;;;;;25.00;86.10;;;;;;5115205;28;19923;-77
2022/05/22 14:38:19;;;;;;;;;;;24.70;90.00;;;;;;5117525;28;19959;-76
2022/05/22 14:40:49;;;;;;;;;;;24.40;90.00;;;;;;5116991;28;19915;-78
2022/05/22 14:43:16;;;;;;;;;;;24.40;89.30;;;;;;5112827;28;19961;-78
2022/05/22 14:45:45;;;;;;;;;;;24.40;86.30;;;;;;5098456;28;19990;-78
2022/05/22 14:48:13;;;;;;;;;;;24.30;90.00;;;;;;5114566;28;20031;-77
2022/05/22 14:50:49;;;;;;;;;;;24.40;88.80;;;;;;5106090;28;20218;-77